Time;durP1;ratioP1;P1;durP2;ratioP2;P2;SDS_P1;SDS_P2;PMS_P1;PMS_P2;Temp;Humidity;BMP_temperature;BMP_pressure;BME280_temperature;BME280_humidity;BME280_pressure;Samples;Min_cycle;Max_cycle;Signal;HPM_P1;HPM_P2
2022/07/22 00:01:43;;;;;;;8.85;1.80;;;15.90;99.90;;;;;;5074806;28;20059;-63
2022/07/22 00:04:09;;;;;;;7.25;2.45;;;15.90;99.90;;;;;;5092840;28;20032;-63
2022/07/22 00:06:34;;;;;;;9.07;1.95;;;15.90;99.90;;;;;;5092758;28;20120;-62
2022/07/22 00:09:00;;;;;;;5.30;2.03;;;15.90;99.90;;;;;;5092413;28;20096;-63
2022/07/22 00:11:26;;;;;;;8.25;2.05;;;15.90;99.90;;;;;;5091156;28;20036;-63
2022/07/22 00:13:51;;;;;;;14.35;2.22;;;15.90;99.90;;;;;;5092440;28;20040;-63
2022/07/22 00:16:17;;;;;;;8.48;2.05;;;15.90;99.90;;;;;;5091146;28;20403;-63
2022/07/22 00:18:43;;;;;;;6.07;1.70;;;15.90;99.90;;;;;;5091858;28;20114;-62
2022/07/22 00:21:08;;;;;;;6.28;1.70;;;15.90;99.90;;;;;;5092672;28;20112;-63
2022/07/22 00:23:34;;;;;;;16.20;2.40;;;15.90;99.90;;;;;;5091508;28;20044;-62
2022/07/22 00:25:59;;;;;;;5.75;1.85;;;15.90;99.90;;;;;;5092378;28;20066;-62
2022/07/22 00:28:25;;;;;;;9.10;1.90;;;15.90;99.90;;;;;;5090801;28;20047;-64
2022/07/22 00:30:51;;;;;;;11.45;2.80;;;15.90;99.90;;;;;;5092491;28;20042;-63
2022/07/22 00:33:16;;;;;;;9.82;1.95;;;15.90;99.90;;;;;;5092673;28;20121;-64
2022/07/22 00:35:42;;;;;;;6.93;1.88;;;15.90;99.90;;;;;;5092452;28;20044;-62
2022/07/22 00:38:08;;;;;;;6.88;2.05;;;15.90;99.90;;;;;;5091936;28;20407;-63
2022/07/22 00:40:33;;;;;;;7.55;2.13;;;15.90;99.90;;;;;;5091941;28;20044;-63
2022/07/22 00:43:00;;;;;;;5.70;1.85;;;15.90;99.90;;;;;;5087388;28;20032;-63
2022/07/22 00:45:26;;;;;;;8.05;1.92;;;15.90;99.90;;;;;;5091768;28;20052;-62
2022/07/22 00:47:52;;;;;;;8.77;2.00;;;15.90;99.90;;;;;;5091470;28;20433;-62
2022/07/22 00:50:19;;;;;;;7.07;1.95;;;15.90;99.90;;;;;;5090196;28;20032;-63
2022/07/22 00:52:46;;;;;;;4.10;1.60;;;15.90;99.90;;;;;;5090814;28;20499;-62
2022/07/22 00:55:12;;;;;;;5.30;1.48;;;15.80;99.90;;;;;;5091539;28;21067;-63
2022/07/22 00:57:37;;;;;;;8.98;2.35;;;15.80;99.90;;;;;;5090552;28;20036;-62
2022/07/22 01:00:07;;;;;;;8.40;1.75;;;15.90;99.90;;;;;;5090971;28;20096;-63
2022/07/22 01:02:33;;;;;;;8.35;2.00;;;15.80;99.90;;;;;;5120775;27;20044;-63
2022/07/22 01:04:58;;;;;;;5.13;1.73;;;15.80;99.90;;;;;;5091315;28;20043;-63
2022/07/22 01:07:24;;;;;;;8.95;2.40;;;15.80;99.90;;;;;;5090135;28;20354;-62
2022/07/22 01:09:49;;;;;;;8.25;1.88;;;15.80;99.90;;;;;;5091815;28;20040;-63
2022/07/22 01:12:15;;;;;;;7.25;1.65;;;15.80;99.90;;;;;;5089949;28;20044;-62
2022/07/22 01:14:41;;;;;;;6.82;1.52;;;15.80;99.90;;;;;;5091150;28;20039;-63
2022/07/22 01:17:07;;;;;;;8.63;1.67;;;15.80;99.90;;;;;;5089946;28;20044;-62
2022/07/22 01:19:34;;;;;;;7.82;1.95;;;15.80;99.90;;;;;;5091409;28;20391;-62
2022/07/22 01:22:00;;;;;;;8.90;1.60;;;15.80;99.90;;;;;;5091129;28;20536;-63
2022/07/22 01:24:26;;;;;;;8.95;2.22;;;15.80;99.90;;;;;;5091273;28;20115;-63
2022/07/22 01:26:51;;;;;;;9.15;1.90;;;15.80;99.90;;;;;;5090370;28;20043;-62
2022/07/22 01:29:17;;;;;;;6.25;1.83;;;15.80;99.90;;;;;;5090750;28;20489;-62
2022/07/22 01:31:43;;;;;;;6.18;1.60;;;15.80;99.90;;;;;;5091134;28;20038;-62
2022/07/22 01:34:08;;;;;;;5.55;1.33;;;15.70;99.90;;;;;;5089807;28;20044;-63
2022/07/22 01:36:34;;;;;;;8.65;2.15;;;15.70;99.90;;;;;;5091130;28;20151;-62
2022/07/22 01:39:00;;;;;;;6.13;1.95;;;15.70;99.90;;;;;;5089763;28;20473;-63
2022/07/22 01:41:26;;;;;;;3.90;1.77;;;15.70;99.90;;;;;;5090974;28;20093;-63
2022/07/22 01:43:51;;;;;;;5.28;1.77;;;15.70;99.90;;;;;;5091058;28;20119;-63
2022/07/22 01:46:18;;;;;;;7.63;2.00;;;15.70;99.90;;;;;;5089664;28;20399;-63
2022/07/22 01:48:44;;;;;;;6.10;1.65;;;15.70;99.90;;;;;;5090984;28;20032;-62
2022/07/22 01:51:10;;;;;;;6.20;2.00;;;15.70;99.90;;;;;;5090781;28;20115;-63
2022/07/22 01:53:35;;;;;;;6.32;1.98;;;15.70;99.90;;;;;;5090353;28;20123;-63
2022/07/22 01:56:01;;;;;;;3.67;1.50;;;15.60;99.90;;;;;;5090663;28;20047;-62
2022/07/22 01:58:26;;;;;;;9.20;2.00;;;15.70;99.90;;;;;;5089255;28;20153;-62
2022/07/22 02:00:52;;;;;;;7.50;1.88;;;15.60;99.90;;;;;;5089653;28;20119;-62
2022/07/22 02:03:18;;;;;;;7.78;1.65;;;15.70;99.90;;;;;;5089462;28;20074;-63
2022/07/22 02:05:45;;;;;;;5.97;1.40;;;15.60;99.90;;;;;;5090248;28;20039;-63
2022/07/22 02:08:12;;;;;;;6.82;1.77;;;15.70;99.90;;;;;;5089648;28;20479;-63
2022/07/22 02:10:38;;;;;;;5.43;1.42;;;15.70;99.90;;;;;;5090376;28;20103;-62
2022/07/22 02:13:04;;;;;;;6.70;1.98;;;15.60;99.90;;;;;;5090686;28;20398;-63
2022/07/22 02:15:30;;;;;;;6.63;2.25;;;15.60;99.90;;;;;;5090060;28;20036;-64
2022/07/22 02:17:56;;;;;;;8.57;2.13;;;15.60;99.90;;;;;;5090652;28;20048;-62
2022/07/22 02:20:22;;;;;;;8.18;1.60;;;15.60;99.90;;;;;;5089321;28;20036;-63
2022/07/22 02:22:48;;;;;;;5.60;1.70;;;15.60;99.90;;;;;;5089142;28;20454;-63
2022/07/22 02:25:14;;;;;;;8.13;1.80;;;15.70;99.90;;;;;;5090401;28;20036;-62
2022/07/22 02:27:41;;;;;;;5.15;1.63;;;15.60;99.90;;;;;;5088890;28;20048;-62
2022/07/22 02:30:08;;;;;;;8.07;1.60;;;15.70;99.90;;;;;;5090490;28;20039;-63
2022/07/22 02:32:33;;;;;;;6.28;1.85;;;15.70;99.90;;;;;;5088382;28;20044;-63
2022/07/22 02:34:59;;;;;;;9.63;2.15;;;15.60;99.90;;;;;;5086705;28;20051;-63
2022/07/22 02:37:25;;;;;;;5.07;1.70;;;15.60;99.90;;;;;;5088531;28;20530;-62
2022/07/22 02:39:51;;;;;;;7.03;1.75;;;15.60;99.90;;;;;;5089904;28;20099;-63
2022/07/22 02:42:17;;;;;;;9.07;2.28;;;15.60;99.90;;;;;;5091527;28;20089;-62
2022/07/22 02:44:42;;;;;;;7.13;1.95;;;15.60;99.90;;;;;;5092597;28;20036;-63
2022/07/22 02:47:08;;;;;;;7.10;2.28;;;15.60;99.90;;;;;;5093643;28;20031;-62
2022/07/22 02:49:34;;;;;;;5.70;1.50;;;15.60;99.90;;;;;;5092681;28;20122;-62
2022/07/22 02:52:00;;;;;;;6.43;1.33;;;15.60;99.90;;;;;;5093660;28;20032;-63
2022/07/22 02:54:26;;;;;;;9.68;1.58;;;15.60;99.90;;;;;;5093920;28;20032;-63
2022/07/22 02:56:51;;;;;;;6.40;2.03;;;15.60;99.90;;;;;;5094206;28;20032;-62
2022/07/22 02:59:17;;;;;;;5.07;1.50;;;15.60;99.90;;;;;;5092875;28;20635;-62
2022/07/22 03:01:42;;;;;;;5.38;1.77;;;15.60;99.90;;;;;;5092325;28;20078;-62
2022/07/22 03:04:08;;;;;;;5.15;1.40;;;15.60;99.90;;;;;;5093546;28;20267;-63
2022/07/22 03:06:34;;;;;;;6.18;1.55;;;15.60;99.90;;;;;;5093538;28;20087;-63
2022/07/22 03:08:59;;;;;;;7.82;1.70;;;15.60;99.90;;;;;;5093919;28;20048;-64
2022/07/22 03:11:25;;;;;;;7.03;1.70;;;15.60;99.90;;;;;;5092672;28;20040;-62
2022/07/22 03:13:51;;;;;;;4.57;2.15;;;15.60;99.90;;;;;;5093985;28;20020;-62
2022/07/22 03:16:16;;;;;;;5.88;2.00;;;15.60;99.90;;;;;;5092387;28;20072;-63
2022/07/22 03:18:42;;;;;;;6.38;1.63;;;15.60;99.90;;;;;;5093494;28;20394;-63
2022/07/22 03:21:07;;;;;;;7.10;1.90;;;15.70;99.90;;;;;;5092608;28;20051;-62
2022/07/22 03:23:33;;;;;;;9.43;1.77;;;15.60;99.90;;;;;;5092237;28;20042;-63
2022/07/22 03:25:58;;;;;;;5.80;1.40;;;15.60;99.90;;;;;;5092376;28;20044;-63
2022/07/22 03:28:24;;;;;;;6.45;2.08;;;15.60;99.90;;;;;;5092287;28;20390;-63
2022/07/22 03:30:50;;;;;;;5.80;1.70;;;15.60;99.90;;;;;;5093106;28;20039;-63
2022/07/22 03:33:15;;;;;;;6.47;1.88;;;15.60;99.90;;;;;;5093513;28;20482;-62
2022/07/22 03:35:41;;;;;;;8.25;2.25;;;15.60;99.90;;;;;;5093508;28;20135;-63
2022/07/22 03:38:06;;;;;;;7.50;1.40;;;15.60;99.90;;;;;;5093472;28;20082;-63
2022/07/22 03:40:32;;;;;;;4.85;1.52;;;15.70;99.90;;;;;;5093204;28;20039;-63
2022/07/22 03:42:58;;;;;;;4.00;1.55;;;15.70;99.90;;;;;;5092146;28;20123;-62
2022/07/22 03:45:23;;;;;;;7.40;1.33;;;15.70;99.90;;;;;;5091911;28;20046;-63
2022/07/22 03:47:49;;;;;;;5.47;1.73;;;15.60;99.90;;;;;;5093253;28;20082;-63
2022/07/22 03:50:14;;;;;;;6.72;1.60;;;15.70;99.90;;;;;;5093336;28;20568;-62
2022/07/22 03:52:40;;;;;;;4.53;1.60;;;15.70;99.90;;;;;;5091863;28;20028;-63
2022/07/22 03:55:07;;;;;;;4.50;1.48;;;15.70;99.90;;;;;;5093425;28;20036;-63
2022/07/22 03:57:32;;;;;;;6.43;1.85;;;15.70;99.90;;;;;;5093042;28;20044;-63
2022/07/22 03:59:58;;;;;;;8.88;1.70;;;15.70;99.90;;;;;;5091832;28;21362;-63
2022/07/22 04:02:24;;;;;;;4.45;1.20;;;15.70;99.90;;;;;;5092749;28;20043;-64
2022/07/22 04:04:49;;;;;;;5.50;1.60;;;15.70;99.90;;;;;;5092794;28;20040;-63
2022/07/22 04:07:15;;;;;;;5.70;1.63;;;15.60;99.90;;;;;;5092809;28;20036;-62
2022/07/22 04:09:40;;;;;;;5.65;1.75;;;15.70;99.90;;;;;;5092998;28;20048;-63
2022/07/22 04:12:06;;;;;;;5.78;1.50;;;15.70;99.90;;;;;;5092608;28;20376;-63
2022/07/22 04:14:32;;;;;;;5.85;1.70;;;15.70;99.90;;;;;;5092810;28;20032;-63
2022/07/22 04:16:57;;;;;;;8.88;1.52;;;15.70;99.90;;;;;;5092744;28;20585;-63
2022/07/22 04:19:23;;;;;;;7.57;2.00;;;15.70;99.90;;;;;;5091554;28;20036;-63
2022/07/22 04:21:49;;;;;;;6.95;1.70;;;15.70;99.90;;;;;;5092342;28;20466;-63
2022/07/22 04:24:14;;;;;;;8.30;1.70;;;15.70;99.90;;;;;;5089401;28;20036;-62
2022/07/22 04:26:40;;;;;;;7.43;1.60;;;15.70;99.90;;;;;;5124312;27;20547;-62
2022/07/22 04:29:06;;;;;;;6.47;1.52;;;15.70;99.90;;;;;;5092374;28;20059;-63
2022/07/22 04:31:32;;;;;;;5.95;1.90;;;15.70;99.90;;;;;;5092521;28;20115;-62
2022/07/22 04:33:58;;;;;;;7.32;1.77;;;15.70;99.90;;;;;;5090849;28;20032;-63
2022/07/22 04:36:24;;;;;;;7.13;1.83;;;15.70;99.90;;;;;;5091975;28;20035;-63
2022/07/22 04:38:50;;;;;;;7.80;2.10;;;15.70;99.90;;;;;;5090112;28;20121;-63
2022/07/22 04:41:15;;;;;;;6.70;1.70;;;15.70;99.90;;;;;;5091919;28;20498;-63
2022/07/22 04:43:41;;;;;;;4.32;1.50;;;15.70;99.90;;;;;;5091359;28;20403;-62
2022/07/22 04:46:07;;;;;;;5.78;1.42;;;15.70;99.90;;;;;;5091473;28;20059;-62
2022/07/22 04:48:32;;;;;;;3.85;1.45;;;15.70;99.90;;;;;;5092097;28;20040;-63
2022/07/22 04:51:00;;;;;;;6.97;1.50;;;15.70;99.90;;;;;;5091804;28;20039;-63
2022/07/22 04:53:26;;;;;;;8.48;1.80;;;15.70;99.90;;;;;;5091912;28;20067;-63
2022/07/22 04:55:52;;;;;;;8.07;1.52;;;15.70;99.90;;;;;;5089791;28;20097;-63
2022/07/22 04:58:17;;;;;;;4.90;1.70;;;15.70;99.90;;;;;;5123940;27;20062;-63
2022/07/22 05:00:43;;;;;;;4.50;1.77;;;15.80;99.90;;;;;;5091765;28;20032;-62
2022/07/22 05:03:08;;;;;;;4.65;1.73;;;15.80;99.90;;;;;;5091725;28;20452;-62
2022/07/22 05:05:34;;;;;;;6.57;1.60;;;15.80;99.90;;;;;;5086211;28;20093;-63
2022/07/22 05:08:00;;;;;;;7.88;1.92;;;15.80;99.90;;;;;;5089058;28;20051;-63
2022/07/22 05:10:27;;;;;;;4.32;1.30;;;15.80;99.90;;;;;;5092729;28;20442;-63
2022/07/22 05:12:53;;;;;;;3.38;1.33;;;15.80;99.90;;;;;;5091416;28;20032;-63
2022/07/22 05:15:19;;;;;;;6.25;1.50;;;15.80;99.90;;;;;;5091082;28;20394;-63
2022/07/22 05:17:44;;;;;;;3.47;1.30;;;15.80;99.90;;;;;;5091282;28;20032;-62
2022/07/22 05:20:11;;;;;;;5.60;1.90;;;15.80;99.90;;;;;;5089979;28;20055;-62
2022/07/22 05:22:37;;;;;;;5.43;1.30;;;15.80;99.90;;;;;;5091676;28;20035;-63
2022/07/22 05:25:03;;;;;;;4.70;1.40;;;15.80;99.90;;;;;;5090198;28;20044;-63
2022/07/22 05:27:28;;;;;;;10.48;1.98;;;15.70;99.90;;;;;;5091346;28;20043;-62
2022/07/22 05:29:54;;;;;;;4.93;1.67;;;15.80;99.90;;;;;;5089180;28;20052;-64
2022/07/22 05:32:20;;;;;;;4.40;1.20;;;15.80;99.90;;;;;;5091106;28;20028;-64
2022/07/22 05:34:45;;;;;;;6.43;1.20;;;15.80;99.90;;;;;;5091666;28;20032;-63
2022/07/22 05:37:11;;;;;;;4.85;1.38;;;15.80;99.90;;;;;;5089333;28;20511;-63
2022/07/22 05:39:37;;;;;;;6.68;1.58;;;15.90;99.90;;;;;;5091155;28;20123;-64
2022/07/22 05:42:02;;;;;;;4.10;1.52;;;15.90;99.90;;;;;;5089852;28;20481;-63
2022/07/22 05:44:28;;;;;;;2.53;1.33;;;15.90;99.90;;;;;;5088178;28;20090;-62
2022/07/22 05:46:54;;;;;;;8.63;2.00;;;16.00;99.90;;;;;;5089845;28;20134;-63
2022/07/22 05:49:21;;;;;;;5.43;1.52;;;16.00;99.90;;;;;;5093146;28;20032;-63
2022/07/22 05:51:47;;;;;;;2.70;1.20;;;16.00;99.90;;;;;;5091192;28;20039;-63
2022/07/22 05:54:12;;;;;;;4.30;1.48;;;15.90;99.90;;;;;;5091651;28;20038;-63
2022/07/22 05:56:38;;;;;;;3.92;1.35;;;16.00;99.90;;;;;;5090289;28;20130;-64
2022/07/22 05:59:04;;;;;;;4.68;1.15;;;16.00;99.90;;;;;;5089638;28;20055;-63
2022/07/22 06:01:29;;;;;;;4.43;1.30;;;16.00;99.90;;;;;;5087907;28;20047;-63
2022/07/22 06:03:55;;;;;;;5.85;1.58;;;16.00;99.90;;;;;;5090179;28;20491;-64
2022/07/22 06:06:20;;;;;;;3.33;1.40;;;16.00;99.90;;;;;;5090207;28;20040;-63
2022/07/22 06:08:46;;;;;;;3.20;1.20;;;16.00;99.90;;;;;;5088412;28;20040;-63
2022/07/22 06:11:12;;;;;;;7.28;1.58;;;16.10;99.90;;;;;;5089990;28;20035;-63
2022/07/22 06:13:38;;;;;;;8.93;2.08;;;16.10;99.90;;;;;;5090312;28;20115;-63
2022/07/22 06:16:04;;;;;;;5.90;1.73;;;16.20;99.90;;;;;;5085734;28;20525;-63
2022/07/22 06:18:29;;;;;;;4.75;1.42;;;16.20;99.90;;;;;;5089766;28;20394;-63
2022/07/22 06:20:55;;;;;;;6.22;1.70;;;16.20;99.90;;;;;;5088936;28;20134;-64
2022/07/22 06:23:23;;;;;;;3.85;1.33;;;16.20;99.90;;;;;;5088132;28;20035;-64
2022/07/22 06:25:48;;;;;;;3.78;1.20;;;16.30;99.90;;;;;;5089046;28;20129;-63
2022/07/22 06:28:14;;;;;;;4.03;1.65;;;16.30;99.90;;;;;;5089821;28;20074;-64
2022/07/22 06:30:40;;;;;;;4.10;1.27;;;16.40;99.90;;;;;;5089984;28;20079;-65
2022/07/22 06:33:06;;;;;;;5.28;1.55;;;16.40;99.90;;;;;;5088807;28;20051;-64
2022/07/22 06:35:32;;;;;;;5.20;1.35;;;16.50;99.90;;;;;;5089549;28;20036;-63
2022/07/22 06:37:58;;;;;;;5.25;1.15;;;16.50;99.90;;;;;;5088690;28;20055;-64
2022/07/22 06:40:23;;;;;;;4.43;1.23;;;16.50;99.90;;;;;;5089832;28;20463;-63
2022/07/22 06:42:49;;;;;;;3.65;1.17;;;16.50;99.90;;;;;;5088894;28;20432;-64
2022/07/22 06:45:14;;;;;;;4.38;1.20;;;16.50;99.90;;;;;;5088891;28;20129;-64
2022/07/22 06:47:40;;;;;;;7.70;1.60;;;16.50;99.90;;;;;;5092931;28;20040;-63
2022/07/22 06:50:07;;;;;;;5.15;1.40;;;16.50;99.90;;;;;;5090230;28;20039;-64
2022/07/22 06:52:33;;;;;;;4.32;1.38;;;16.50;99.90;;;;;;5122474;28;20425;-64
2022/07/22 06:54:59;;;;;;;4.03;1.20;;;16.40;99.90;;;;;;5088763;28;20122;-64
2022/07/22 06:57:25;;;;;;;3.10;1.10;;;16.50;99.90;;;;;;5089050;28;20474;-64
2022/07/22 06:59:50;;;;;;;8.25;1.30;;;16.50;99.90;;;;;;5089984;28;20032;-62
2022/07/22 07:02:16;;;;;;;4.78;1.10;;;16.50;99.90;;;;;;5089730;28;20032;-64
2022/07/22 07:04:42;;;;;;;3.47;1.00;;;16.50;99.90;;;;;;5089638;28;20036;-64
2022/07/22 07:07:08;;;;;;;6.88;1.65;;;16.60;99.90;;;;;;5089187;28;20566;-63
2022/07/22 07:09:34;;;;;;;3.35;1.20;;;16.60;99.90;;;;;;5086284;28;20075;-63
2022/07/22 07:12:00;;;;;;;6.80;1.63;;;16.70;99.90;;;;;;5084077;28;20040;-64
2022/07/22 07:14:26;;;;;;;6.07;1.27;;;16.70;99.90;;;;;;5089121;28;20085;-63
2022/07/22 07:16:52;;;;;;;3.13;1.23;;;16.70;99.90;;;;;;5089466;28;20119;-64
2022/07/22 07:19:19;;;;;;;5.75;1.42;;;16.70;99.90;;;;;;5089708;28;20043;-64
2022/07/22 07:21:45;;;;;;;3.35;1.20;;;16.70;99.90;;;;;;5089445;28;20119;-64
2022/07/22 07:24:11;;;;;;;5.28;1.00;;;16.70;99.90;;;;;;5088100;28;20042;-63
2022/07/22 07:26:37;;;;;;;4.50;1.20;;;16.70;99.90;;;;;;5089449;28;20406;-64
2022/07/22 07:29:03;;;;;;;4.57;1.13;;;16.80;99.90;;;;;;5092325;28;20032;-64
2022/07/22 07:31:28;;;;;;;4.13;1.10;;;16.90;99.90;;;;;;5091854;28;20100;-64
2022/07/22 07:33:54;;;;;;;4.20;1.30;;;17.00;99.90;;;;;;5091716;28;20032;-64
2022/07/22 07:36:20;;;;;;;4.63;0.90;;;17.00;99.90;;;;;;5093367;28;20491;-63
2022/07/22 07:38:45;;;;;;;4.13;1.20;;;17.10;99.90;;;;;;5092332;28;20052;-64
2022/07/22 07:41:11;;;;;;;6.32;1.20;;;17.10;99.90;;;;;;5091967;28;20053;-64
2022/07/22 07:43:37;;;;;;;6.43;1.13;;;17.10;99.90;;;;;;5091741;28;20475;-64
2022/07/22 07:46:02;;;;;;;4.55;1.20;;;17.10;99.90;;;;;;5091991;28;20051;-63
2022/07/22 07:48:28;;;;;;;4.72;1.17;;;17.10;99.90;;;;;;5093724;28;20040;-64
2022/07/22 07:50:54;;;;;;;4.28;1.17;;;17.10;99.90;;;;;;5093018;28;20417;-63
2022/07/22 07:53:19;;;;;;;5.82;1.00;;;17.10;99.90;;;;;;5092311;28;20036;-64
2022/07/22 07:55:45;;;;;;;4.15;0.80;;;17.20;99.90;;;;;;5092130;28;20127;-64
2022/07/22 07:58:11;;;;;;;8.68;1.55;;;17.20;99.90;;;;;;5092045;28;20050;-63
2022/07/22 08:00:38;;;;;;;3.50;0.93;;;17.20;99.90;;;;;;5092553;28;20098;-62
2022/07/22 08:03:04;;;;;;;2.72;1.00;;;17.30;99.90;;;;;;5093077;28;20487;-63
2022/07/22 08:05:30;;;;;;;2.72;0.93;;;17.30;99.90;;;;;;5091741;28;20036;-64
2022/07/22 08:07:56;;;;;;;5.13;1.00;;;17.30;99.90;;;;;;5091377;28;20040;-64
2022/07/22 08:10:22;;;;;;;3.55;0.90;;;17.40;99.90;;;;;;5091899;28;20044;-63
2022/07/22 08:12:50;;;;;;;3.72;0.98;;;17.40;99.90;;;;;;5091593;28;20043;-63
2022/07/22 08:15:15;;;;;;;4.32;1.20;;;17.40;99.90;;;;;;5091503;28;20052;-64
2022/07/22 08:17:41;;;;;;;4.82;1.00;;;17.30;99.90;;;;;;5092569;28;20035;-63
2022/07/22 08:20:07;;;;;;;2.47;1.00;;;17.40;99.90;;;;;;5092957;28;20032;-64
2022/07/22 08:22:33;;;;;;;2.17;0.90;;;17.50;99.90;;;;;;5093052;28;20036;-63
2022/07/22 08:24:59;;;;;;;3.80;0.98;;;17.60;99.90;;;;;;5090929;28;20460;-64
2022/07/22 08:27:25;;;;;;;6.07;1.20;;;17.60;99.90;;;;;;5092743;28;20088;-63
2022/07/22 08:29:50;;;;;;;2.78;0.80;;;17.60;99.90;;;;;;5092207;28;20113;-64
2022/07/22 08:32:16;;;;;;;3.22;0.90;;;17.60;99.90;;;;;;5092787;28;20039;-64
2022/07/22 08:34:42;;;;;;;4.60;1.10;;;17.60;99.90;;;;;;5093084;28;20060;-64
2022/07/22 08:37:08;;;;;;;4.18;1.00;;;17.60;99.90;;;;;;5091144;28;20040;-63
2022/07/22 08:39:34;;;;;;;2.92;1.00;;;17.70;99.90;;;;;;5091732;28;20036;-64
2022/07/22 08:42:00;;;;;;;4.93;1.20;;;17.70;99.90;;;;;;5092270;28;20478;-64
2022/07/22 08:44:33;;;;;;;3.97;1.20;;;17.70;99.90;;;;;;5092347;28;20544;-64
2022/07/22 08:47:00;;;;;;;3.67;1.00;;;17.70;99.90;;;;;;5092425;28;20036;-64
2022/07/22 08:49:26;;;;;;;3.97;0.95;;;17.60;99.90;;;;;;5092101;28;20182;-63
2022/07/22 08:51:52;;;;;;;4.93;1.00;;;17.50;99.90;;;;;;5092092;28;20032;-63
2022/07/22 08:54:18;;;;;;;6.15;1.00;;;17.50;99.90;;;;;;5092215;28;20032;-63
2022/07/22 08:56:51;;;;;;;3.00;1.15;;;17.50;99.90;;;;;;5092416;28;20043;-63
2022/07/22 08:59:17;;;;;;;5.30;1.35;;;17.50;99.90;;;;;;5091116;28;20043;-63
2022/07/22 09:02:02;;;;;;;4.32;0.85;;;17.50;99.90;;;;;;5092066;28;20141;-64
2022/07/22 09:04:28;;;;;;;4.90;1.20;;;17.40;99.90;;;;;;5091190;28;20039;-63
2022/07/22 09:06:53;;;;;;;2.10;0.90;;;17.40;99.90;;;;;;5091828;28;20395;-63
2022/07/22 09:09:32;;;;;;;3.35;1.15;;;17.40;99.90;;;;;;5091841;28;20086;-64
2022/07/22 09:12:06;;;;;;;5.32;1.00;;;17.30;99.90;;;;;;5089380;28;20115;-64
2022/07/22 09:14:50;;;;;;;2.97;0.90;;;17.20;99.90;;;;;;5090666;28;20044;-63
2022/07/22 09:17:27;;;;;;;4.07;0.90;;;17.20;99.90;;;;;;5090749;28;20135;-63
2022/07/22 09:19:53;;;;;;;4.30;1.00;;;17.20;99.90;;;;;;5090343;28;20040;-63
2022/07/22 09:22:40;;;;;;;3.55;1.38;;;17.10;99.90;;;;;;5090324;28;20131;-64
2022/07/22 09:25:29;;;;;;;5.25;0.90;;;17.20;99.90;;;;;;5091213;28;20043;-63
2022/07/22 09:28:22;;;;;;;4.85;1.00;;;17.20;99.90;;;;;;5091569;28;20032;-64
2022/07/22 09:30:53;;;;;;;4.20;1.13;;;17.20;99.90;;;;;;5091691;28;20066;-64
2022/07/22 09:33:19;;;;;;;2.65;0.90;;;17.30;99.90;;;;;;5073013;28;20058;-63
2022/07/22 09:35:46;;;;;;;3.15;1.17;;;17.40;99.90;;;;;;5090533;28;20040;-64
2022/07/22 09:38:14;;;;;;;4.18;1.10;;;17.40;99.90;;;;;;5091237;28;20507;-64
2022/07/22 09:40:42;;;;;;;4.95;0.80;;;17.50;99.90;;;;;;5091155;28;20040;-64
2022/07/22 09:43:14;;;;;;;5.95;1.00;;;17.60;99.90;;;;;;5089791;28;20513;-64
2022/07/22 09:45:56;;;;;;;5.03;1.33;;;17.70;99.90;;;;;;5091311;28;20067;-64
2022/07/22 09:48:22;;;;;;;;;;;17.80;99.90;;;;;;5091676;28;20057;-64
2022/07/22 09:50:49;;;;;;;6.72;1.05;;;17.90;99.90;;;;;;5089125;28;19924;-63
2022/07/22 09:53:18;;;;;;;5.47;1.17;;;17.90;99.90;;;;;;5089755;28;20040;-63
2022/07/22 09:55:44;;;;;;;3.28;1.20;;;18.10;99.90;;;;;;5089659;28;20410;-64
2022/07/22 09:58:11;;;;;;;5.43;1.27;;;18.30;99.90;;;;;;5089619;28;20048;-64
2022/07/22 10:00:38;;;;;;;4.07;0.95;;;18.50;99.90;;;;;;5089668;28;20170;-63
2022/07/22 10:03:11;;;;;;;4.30;0.80;;;18.50;99.90;;;;;;5090956;28;20048;-64
2022/07/22 10:05:40;;;;;;;2.95;0.80;;;18.40;99.90;;;;;;5090415;28;20445;-63
2022/07/22 10:08:07;;;;;;;2.08;0.85;;;18.50;99.90;;;;;;5090848;28;20125;-64
2022/07/22 10:10:34;;;;;;;4.53;1.20;;;18.60;99.90;;;;;;5090973;28;20364;-63
2022/07/22 10:13:02;;;;;;;2.28;0.90;;;18.70;99.90;;;;;;5090963;28;20395;-63
2022/07/22 10:15:29;;;;;;;5.70;1.10;;;18.80;99.90;;;;;;5090343;28;20047;-64
2022/07/22 10:17:57;;;;;;;2.80;1.08;;;18.70;99.90;;;;;;5090847;28;20044;-64
2022/07/22 10:20:26;;;;;;;2.25;0.80;;;18.70;99.90;;;;;;5090674;28;20028;-64
2022/07/22 10:22:55;;;;;;;3.55;0.95;;;18.70;99.90;;;;;;5091068;28;20071;-63
2022/07/22 10:25:24;;;;;;;3.15;0.85;;;18.60;99.90;;;;;;5089611;28;20119;-64
2022/07/22 10:27:50;;;;;;;2.50;0.98;;;18.60;99.90;;;;;;5089021;28;20118;-64
2022/07/22 10:30:19;;;;;;;4.70;1.00;;;18.50;99.90;;;;;;5091233;28;20491;-64
2022/07/22 10:32:45;;;;;;;3.83;1.00;;;18.50;99.90;;;;;;5090410;28;20410;-64
2022/07/22 10:35:11;;;;;;;4.35;1.00;;;18.40;99.90;;;;;;5089268;28;20040;-63
2022/07/22 10:37:40;;;;;;;4.28;1.00;;;18.30;99.90;;;;;;5090078;28;20048;-63
2022/07/22 10:40:14;;;;;;;5.32;1.83;;;18.20;99.90;;;;;;5086510;28;20075;-63
2022/07/22 10:43:02;;;;;;;4.57;1.02;;;18.10;99.90;;;;;;5088195;28;20118;-64
2022/07/22 10:45:31;;;;;;;2.38;0.90;;;18.00;99.90;;;;;;5070861;28;20378;-64
2022/07/22 10:47:59;;;;;;;4.45;1.00;;;17.90;99.90;;;;;;5090349;28;20036;-64
2022/07/22 10:50:37;;;;;;;3.15;0.93;;;17.90;99.90;;;;;;5090465;28;20402;-64
2022/07/22 10:53:07;;;;;;;2.88;1.00;;;17.80;99.90;;;;;;5090296;28;20032;-63
2022/07/22 10:55:33;;;;;;;2.97;0.90;;;17.80;99.90;;;;;;5090280;28;20115;-64
2022/07/22 10:57:59;;;;;;;2.63;0.90;;;17.80;99.90;;;;;;5086653;28;20036;-64
2022/07/22 11:00:26;;;;;;;4.13;0.70;;;17.80;99.90;;;;;;5089363;28;20052;-63
2022/07/22 11:02:51;;;;;;;2.50;0.93;;;17.80;99.90;;;;;;5092843;28;20031;-63
2022/07/22 11:05:29;;;;;;;2.10;0.60;;;17.80;99.90;;;;;;5093413;28;20036;-63
2022/07/22 11:07:55;;;;;;;3.08;0.73;;;17.90;99.90;;;;;;5094396;28;20050;-63
2022/07/22 11:10:21;;;;;;;1.92;0.70;;;17.90;99.90;;;;;;5094326;28;20431;-63
2022/07/22 11:12:48;;;;;;;2.28;0.68;;;18.00;99.90;;;;;;5094180;28;20471;-64
2022/07/22 11:15:14;;;;;;;2.40;0.70;;;18.00;99.90;;;;;;5094103;28;20043;-64
2022/07/22 11:17:40;;;;;;;3.00;0.70;;;18.00;99.90;;;;;;5094054;28;20039;-64
2022/07/22 11:20:08;;;;;;;2.13;0.73;;;18.10;99.90;;;;;;5093998;28;20418;-64
2022/07/22 11:22:34;;;;;;;4.85;0.90;;;18.20;99.90;;;;;;5092464;28;20067;-64
2022/07/22 11:25:09;;;;;;;3.00;0.90;;;18.20;99.90;;;;;;5093833;28;20036;-63
2022/07/22 11:27:35;;;;;;;3.40;1.10;;;18.30;99.90;;;;;;5093980;28;20063;-64
2022/07/22 11:30:03;;;;;;;2.15;0.75;;;18.30;99.90;;;;;;5092432;28;20044;-64
2022/07/22 11:32:31;;;;;;;2.63;0.80;;;18.30;99.90;;;;;;5091640;28;20040;-64
2022/07/22 11:34:59;;;;;;;2.85;1.00;;;18.30;99.90;;;;;;5092295;28;20044;-63
2022/07/22 11:37:26;;;;;;;3.17;0.80;;;18.30;99.90;;;;;;5092621;28;20036;-65
2022/07/22 11:40:00;;;;;;;3.25;0.80;;;18.30;99.90;;;;;;5090981;28;20040;-64
2022/07/22 11:42:26;;;;;;;3.75;1.15;;;18.30;99.90;;;;;;5091349;28;20135;-63
2022/07/22 11:44:51;;;;;;;2.90;0.88;;;18.40;99.90;;;;;;5093390;28;20119;-64
2022/07/22 11:47:17;;;;;;;4.78;1.15;;;18.30;99.90;;;;;;5093646;28;20040;-64
2022/07/22 11:49:46;;;;;;;2.97;0.80;;;18.40;99.90;;;;;;5092572;28;20032;-63
2022/07/22 11:52:12;;;;;;;2.17;0.70;;;18.40;99.90;;;;;;5092254;28;20044;-63
2022/07/22 11:54:39;;;;;;;1.92;0.90;;;18.40;99.90;;;;;;5093579;28;20090;-63
2022/07/22 11:57:05;;;;;;;2.47;0.80;;;18.40;99.90;;;;;;5093317;28;20443;-64
2022/07/22 11:59:32;;;;;;;2.60;1.08;;;18.40;99.90;;;;;;5092322;28;20043;-64
2022/07/22 12:01:58;;;;;;;2.15;0.90;;;18.20;99.90;;;;;;5093609;28;20044;-64
2022/07/22 12:04:25;;;;;;;2.28;0.82;;;18.30;99.90;;;;;;5093616;28;20574;-64
2022/07/22 12:06:54;;;;;;;3.33;0.95;;;18.20;99.90;;;;;;5091724;28;20620;-65
2022/07/22 12:09:19;;;;;;;3.65;0.80;;;18.20;99.90;;;;;;5093179;28;20046;-64
2022/07/22 12:11:48;;;;;;;2.42;0.90;;;18.30;99.90;;;;;;5093115;28;20040;-64
2022/07/22 12:14:22;;;;;;;4.25;0.70;;;18.30;99.90;;;;;;5090784;28;20036;-64
2022/07/22 12:17:03;;;;;;;2.72;0.90;;;18.40;99.90;;;;;;5091608;28;20059;-63
2022/07/22 12:19:31;;;;;;;3.38;0.90;;;18.50;99.90;;;;;;5087299;28;20123;-64
2022/07/22 12:22:02;;;;;;;3.25;0.88;;;18.40;99.90;;;;;;5093079;28;20398;-64
2022/07/22 12:24:29;;;;;;;2.22;0.80;;;18.40;99.90;;;;;;5091779;28;20040;-64
2022/07/22 12:26:57;;;;;;;1.92;0.85;;;18.30;99.90;;;;;;5091508;28;20517;-64
2022/07/22 12:29:29;;;;;;;5.93;0.90;;;18.20;99.90;;;;;;5092791;28;20039;-63
2022/07/22 12:32:00;;;;;;;;;;;18.30;99.90;;;;;;5093140;28;20036;-63
2022/07/22 12:34:39;;;;;;;3.22;1.13;;;18.20;99.90;;;;;;5125788;27;19920;-64
2022/07/22 12:37:33;;;;;;;3.45;1.00;;;18.30;99.90;;;;;;5092519;28;20140;-64
2022/07/22 12:39:59;;;;;;;2.95;0.90;;;18.20;99.90;;;;;;5090889;28;20405;-64
2022/07/22 12:42:27;;;;;;;3.63;1.00;;;18.30;99.90;;;;;;5091627;28;20040;-65
2022/07/22 12:45:05;;;;;;;2.75;1.23;;;18.40;99.90;;;;;;5090887;28;20062;-64
2022/07/22 12:47:53;;;;;;;4.78;0.93;;;18.40;99.90;;;;;;5090924;28;20094;-63